Albany, Minnesota
Current Conditions -  °F | °C
As of 3:33 AM on Thursday 27 Nov 2014 (Local Time) from KD39 Reporting Station
Clear Clear  
Wind Chill: -18°   Ceiling: Unl
Heat Index: -7°   Visibility: 10mi
Dew Point: -11°   Wind: 5mph
Humidity: 81%   Direction: 340°NNW
Pressure: 30.48"   Gusts: NA
Location:  45.63°N, 94.57°W
Report Text: KD39 270933Z AUTO 34004KT 10SM CLR M22/M24 A3048 RMK AO2 T12161240
Loading
Personal Weather Stations






























Interactive Weather Map New forecast layout! Learn more

10-Day Weather Forecast

Advertisements
Track Severe Weather on mobile